sensor_id;sensor_type;location;lat;lon;timestamp;pressure;altitude;pressure_sealevel;temperature;humidity
44198;BME280;30157;55.512;37.764;2023-08-31T00:00:49;99936.69;;;13.57;87.01
44198;BME280;30157;55.512;37.764;2023-08-31T00:03:17;99859.22;;;13.07;87.56
44198;BME280;30157;55.512;37.764;2023-08-31T00:05:43;99952.34;;;13.57;87.62
44198;BME280;30157;55.512;37.764;2023-08-31T00:08:10;99950.69;;;13.51;87.97
44198;BME280;30157;55.512;37.764;2023-08-31T00:10:37;99962.13;;;13.42;88.30
44198;BME280;30157;55.512;37.764;2023-08-31T00:13:04;99918.19;;;13.13;88.33
44198;BME280;30157;55.512;37.764;2023-08-31T00:15:32;99920.69;;;13.21;88.61
44198;BME280;30157;55.512;37.764;2023-08-31T00:18:00;99953.47;;;13.39;88.84
44198;BME280;30157;55.512;37.764;2023-08-31T00:20:26;99903.63;;;12.98;89.03
44198;BME280;30157;55.512;37.764;2023-08-31T00:22:52;99947.41;;;13.35;89.14
44198;BME280;30157;55.512;37.764;2023-08-31T00:25:18;99875.91;;;12.91;89.19
44198;BME280;30157;55.512;37.764;2023-08-31T00:27:44;99948.31;;;13.36;89.01
44198;BME280;30157;55.512;37.764;2023-08-31T00:30:14;99936.25;;;13.25;89.19
44198;BME280;30157;55.512;37.764;2023-08-31T00:32:41;99932.00;;;13.20;89.30
44198;BME280;30157;55.512;37.764;2023-08-31T00:35:11;99949.22;;;13.32;89.43
44198;BME280;30157;55.512;37.764;2023-08-31T00:37:36;99947.56;;;13.23;89.56
44198;BME280;30157;55.512;37.764;2023-08-31T00:40:02;99919.94;;;13.11;89.51
44198;BME280;30157;55.512;37.764;2023-08-31T00:42:35;99873.34;;;12.89;89.47
44198;BME280;30157;55.512;37.764;2023-08-31T00:45:04;99954.34;;;13.38;89.32
44198;BME280;30157;55.512;37.764;2023-08-31T00:47:32;99871.63;;;12.88;89.25
44198;BME280;30157;55.512;37.764;2023-08-31T00:49:59;99937.06;;;13.29;89.23
44198;BME280;30157;55.512;37.764;2023-08-31T00:52:30;99912.22;;;13.05;89.50
44198;BME280;30157;55.512;37.764;2023-08-31T00:54:56;99942.41;;;13.20;89.67
44198;BME280;30157;55.512;37.764;2023-08-31T00:57:23;99924.38;;;13.04;90.25
44198;BME280;30157;55.512;37.764;2023-08-31T00:59:52;99821.78;;;12.51;90.10
44198;BME280;30157;55.512;37.764;2023-08-31T01:05:29;99945.03;;;13.20;90.45
44198;BME280;30157;55.512;37.764;2023-08-31T01:07:44;99938.19;;;13.13;90.85
44198;BME280;30157;55.512;37.764;2023-08-31T01:10:25;99945.94;;;13.16;90.79
44198;BME280;30157;55.512;37.764;2023-08-31T01:13:00;99955.41;;;13.21;90.89
44198;BME280;30157;55.512;37.764;2023-08-31T01:15:31;99952.75;;;13.27;90.81
44198;BME280;30157;55.512;37.764;2023-08-31T01:17:58;99953.53;;;13.34;90.78
44198;BME280;30157;55.512;37.764;2023-08-31T01:20:34;99959.53;;;13.41;90.05
44198;BME280;30157;55.512;37.764;2023-08-31T01:23:02;99879.31;;;12.96;89.87
44198;BME280;30157;55.512;37.764;2023-08-31T01:25:32;99935.41;;;13.25;89.58
44198;BME280;30157;55.512;37.764;2023-08-31T01:28:00;99844.09;;;12.69;89.80
44198;BME280;30157;55.512;37.764;2023-08-31T01:30:30;99945.09;;;13.14;90.08
44198;BME280;30157;55.512;37.764;2023-08-31T01:32:56;99840.81;;;12.54;90.57
44198;BME280;30157;55.512;37.764;2023-08-31T01:35:22;99950.22;;;13.21;90.49
44198;BME280;30157;55.512;37.764;2023-08-31T01:37:57;99943.28;;;13.19;90.57
44198;BME280;30157;55.512;37.764;2023-08-31T01:41:07;99941.63;;;13.13;90.69
44198;BME280;30157;55.512;37.764;2023-08-31T01:43:26;99915.09;;;12.85;91.12
44198;BME280;30157;55.512;37.764;2023-08-31T01:45:53;99928.09;;;12.86;91.27
44198;BME280;30157;55.512;37.764;2023-08-31T01:48:19;99898.78;;;12.69;91.68
44198;BME280;30157;55.512;37.764;2023-08-31T01:50:45;99940.06;;;13.00;91.77
44198;BME280;30157;55.512;37.764;2023-08-31T01:53:12;99949.56;;;13.04;91.43
44198;BME280;30157;55.512;37.764;2023-08-31T01:55:38;99915.88;;;12.90;91.52
44198;BME280;30157;55.512;37.764;2023-08-31T01:58:04;99910.78;;;12.81;91.47
44198;BME280;30157;55.512;37.764;2023-08-31T02:00:30;99856.41;;;12.56;91.46
44198;BME280;30157;55.512;37.764;2023-08-31T02:03:01;99848.72;;;12.47;91.51
44198;BME280;30157;55.512;37.764;2023-08-31T02:05:26;99897.03;;;12.71;91.42
44198;BME280;30157;55.512;37.764;2023-08-31T02:07:52;99891.00;;;12.66;91.67
44198;BME280;30157;55.512;37.764;2023-08-31T02:10:18;99847.94;;;12.38;91.78
44198;BME280;30157;55.512;37.764;2023-08-31T02:13:04;99904.84;;;12.71;91.91
44198;BME280;30157;55.512;37.764;2023-08-31T02:15:29;99942.75;;;12.92;92.00
44198;BME280;30157;55.512;37.764;2023-08-31T02:17:59;99936.75;;;12.87;92.14
44198;BME280;30157;55.512;37.764;2023-08-31T02:20:25;99938.47;;;12.88;92.37
44198;BME280;30157;55.512;37.764;2023-08-31T02:22:52;99929.03;;;12.81;92.24
44198;BME280;30157;55.512;37.764;2023-08-31T02:25:18;99863.53;;;12.38;92.17
44198;BME280;30157;55.512;37.764;2023-08-31T02:27:46;99934.16;;;12.85;92.35
44198;BME280;30157;55.512;37.764;2023-08-31T02:30:12;99944.56;;;12.87;92.19
44198;BME280;30157;55.512;37.764;2023-08-31T02:32:38;99954.16;;;12.85;92.34
44198;BME280;30157;55.512;37.764;2023-08-31T02:35:04;99919.59;;;12.70;92.65
44198;BME280;30157;55.512;37.764;2023-08-31T02:37:30;99897.25;;;12.52;92.73
44198;BME280;30157;55.512;37.764;2023-08-31T02:39:56;99918.03;;;12.55;92.70
44198;BME280;30157;55.512;37.764;2023-08-31T02:42:22;99940.34;;;12.76;92.91
44198;BME280;30157;55.512;37.764;2023-08-31T02:44:51;99935.13;;;12.78;93.29
44198;BME280;30157;55.512;37.764;2023-08-31T02:47:19;99862.69;;;12.38;93.33
44198;BME280;30157;55.512;37.764;2023-08-31T02:49:45;99930.78;;;12.78;93.62
44198;BME280;30157;55.512;37.764;2023-08-31T02:52:13;99905.88;;;12.57;93.39
44198;BME280;30157;55.512;37.764;2023-08-31T02:54:39;99879.09;;;12.44;93.93
44198;BME280;30157;55.512;37.764;2023-08-31T02:57:05;99939.53;;;12.73;93.98
44198;BME280;30157;55.512;37.764;2023-08-31T02:59:31;99929.09;;;12.74;94.09
44198;BME280;30157;55.512;37.764;2023-08-31T03:02:02;99915.25;;;12.71;94.21
44198;BME280;30157;55.512;37.764;2023-08-31T03:04:29;99870.38;;;12.49;94.09
44198;BME280;30157;55.512;37.764;2023-08-31T03:06:55;99773.84;;;11.91;93.80
44198;BME280;30157;55.512;37.764;2023-08-31T03:09:20;99941.03;;;12.91;93.64
44198;BME280;30157;55.512;37.764;2023-08-31T03:11:46;99841.91;;;12.36;93.56
44198;BME280;30157;55.512;37.764;2023-08-31T03:14:12;99853.91;;;12.48;93.49
44198;BME280;30157;55.512;37.764;2023-08-31T03:16:38;99824.56;;;12.34;93.19
44198;BME280;30157;55.512;37.764;2023-08-31T03:19:04;99948.59;;;13.11;93.12
44198;BME280;30157;55.512;37.764;2023-08-31T03:21:30;99883.00;;;12.81;92.65
44198;BME280;30157;55.512;37.764;2023-08-31T03:23:56;99928.53;;;13.19;92.59
44198;BME280;30157;55.512;37.764;2023-08-31T03:26:21;99913.56;;;13.37;91.65
44198;BME280;30157;55.512;37.764;2023-08-31T03:28:47;99931.94;;;13.82;90.75
44198;BME280;30157;55.512;37.764;2023-08-31T03:31:13;99894.50;;;13.86;89.21
44198;BME280;30157;55.512;37.764;2023-08-31T03:33:41;99934.44;;;14.40;87.90
44198;BME280;30157;55.512;37.764;2023-08-31T03:36:06;99933.97;;;14.65;86.30
44198;BME280;30157;55.512;37.764;2023-08-31T03:38:33;99931.91;;;14.82;85.28
44198;BME280;30157;55.512;37.764;2023-08-31T03:41:08;99866.28;;;14.52;84.56
44198;BME280;30157;55.512;37.764;2023-08-31T03:43:33;99943.31;;;15.20;83.65
44198;BME280;30157;55.512;37.764;2023-08-31T03:46:00;99930.13;;;15.25;83.77
44198;BME280;30157;55.512;37.764;2023-08-31T03:48:26;99934.63;;;15.57;81.23
44198;BME280;30157;55.512;37.764;2023-08-31T03:50:52;99887.78;;;15.46;79.91
44198;BME280;30157;55.512;37.764;2023-08-31T03:53:19;99908.66;;;15.50;80.04
44198;BME280;30157;55.512;37.764;2023-08-31T03:55:44;99937.91;;;15.67;80.91
44198;BME280;30157;55.512;37.764;2023-08-31T03:58:14;99945.34;;;15.84;80.48
44198;BME280;30157;55.512;37.764;2023-08-31T04:00:41;99838.53;;;15.64;78.15
44198;BME280;30157;55.512;37.764;2023-08-31T04:03:09;99863.56;;;16.10;77.14
44198;BME280;30157;55.512;37.764;2023-08-31T04:05:35;99936.78;;;16.78;76.60
44198;BME280;30157;55.512;37.764;2023-08-31T04:08:02;99926.75;;;16.94;74.25
44198;BME280;30157;55.512;37.764;2023-08-31T04:10:28;99862.25;;;16.57;73.33
44198;BME280;30157;55.512;37.764;2023-08-31T04:12:55;99866.50;;;16.61;73.72
44198;BME280;30157;55.512;37.764;2023-08-31T04:15:21;99930.56;;;17.12;73.41
44198;BME280;30157;55.512;37.764;2023-08-31T04:17:46;99907.03;;;17.10;72.94
44198;BME280;30157;55.512;37.764;2023-08-31T04:20:12;99896.44;;;17.13;72.77
44198;BME280;30157;55.512;37.764;2023-08-31T04:22:38;99943.41;;;17.50;72.77
44198;BME280;30157;55.512;37.764;2023-08-31T04:25:03;99858.38;;;17.28;71.62
44198;BME280;30157;55.512;37.764;2023-08-31T04:27:29;99853.66;;;16.83;71.00
44198;BME280;30157;55.512;37.764;2023-08-31T04:30:01;99955.13;;;17.09;72.66
44198;BME280;30157;55.512;37.764;2023-08-31T04:32:29;99934.47;;;16.99;72.69
44198;BME280;30157;55.512;37.764;2023-08-31T04:34:54;99921.31;;;17.30;72.57
44198;BME280;30157;55.512;37.764;2023-08-31T04:37:21;99952.81;;;17.85;71.27
44198;BME280;30157;55.512;37.764;2023-08-31T04:39:47;99759.44;;;17.07;70.25
44198;BME280;30157;55.512;37.764;2023-08-31T04:42:13;99907.47;;;18.32;69.41
44198;BME280;30157;55.512;37.764;2023-08-31T04:44:38;99898.59;;;18.84;68.00
44198;BME280;30157;55.512;37.764;2023-08-31T04:47:04;99878.63;;;18.78;66.04
44198;BME280;30157;55.512;37.764;2023-08-31T04:49:30;99877.06;;;18.25;66.66
44198;BME280;30157;55.512;37.764;2023-08-31T04:51:56;99870.72;;;18.07;67.63
44198;BME280;30157;55.512;37.764;2023-08-31T04:54:21;99863.72;;;18.55;66.31
44198;BME280;30157;55.512;37.764;2023-08-31T04:56:47;99923.47;;;19.44;65.35
44198;BME280;30157;55.512;37.764;2023-08-31T04:59:13;99945.25;;;19.92;64.71
44198;BME280;30157;55.512;37.764;2023-08-31T05:01:38;99921.94;;;20.24;63.92
44198;BME280;30157;55.512;37.764;2023-08-31T05:04:04;99904.75;;;20.36;63.69
44198;BME280;30157;55.512;37.764;2023-08-31T05:06:30;99953.03;;;21.16;61.18
44198;BME280;30157;55.512;37.764;2023-08-31T05:08:55;99926.47;;;21.21;60.17
44198;BME280;30157;55.512;37.764;2023-08-31T05:11:22;99882.59;;;21.18;60.73
44198;BME280;30157;55.512;37.764;2023-08-31T05:13:47;99909.50;;;21.80;58.42
44198;BME280;30157;55.512;37.764;2023-08-31T05:16:13;99948.69;;;22.07;57.46
44198;BME280;30157;55.512;37.764;2023-08-31T05:18:39;99789.75;;;20.73;58.52
44198;BME280;30157;55.512;37.764;2023-08-31T05:21:08;99946.91;;;21.35;58.62
44198;BME280;30157;55.512;37.764;2023-08-31T05:23:34;99937.69;;;20.46;60.52
44198;BME280;30157;55.512;37.764;2023-08-31T05:26:00;99953.63;;;20.85;61.07
44198;BME280;30157;55.512;37.764;2023-08-31T05:28:27;99923.91;;;20.60;60.95
44198;BME280;30157;55.512;37.764;2023-08-31T05:30:55;99939.09;;;20.95;60.69
44198;BME280;30157;55.512;37.764;2023-08-31T05:33:21;99960.34;;;21.86;58.58
44198;BME280;30157;55.512;37.764;2023-08-31T05:35:54;99933.47;;;22.12;57.29
44198;BME280;30157;55.512;37.764;2023-08-31T05:38:20;99824.44;;;21.74;56.25
44198;BME280;30157;55.512;37.764;2023-08-31T05:40:45;99955.50;;;22.64;56.91
44198;BME280;30157;55.512;37.764;2023-08-31T05:43:12;99866.50;;;22.63;54.78
44198;BME280;30157;55.512;37.764;2023-08-31T05:45:38;99948.78;;;23.08;54.83
44198;BME280;30157;55.512;37.764;2023-08-31T05:48:04;99948.56;;;22.95;54.89
44198;BME280;30157;55.512;37.764;2023-08-31T05:50:30;99899.56;;;22.72;54.69
44198;BME280;30157;55.512;37.764;2023-08-31T05:52:56;99920.41;;;22.94;55.11
44198;BME280;30157;55.512;37.764;2023-08-31T05:55:22;99959.03;;;23.14;55.33
44198;BME280;30157;55.512;37.764;2023-08-31T05:57:48;99920.63;;;23.23;55.36
44198;BME280;30157;55.512;37.764;2023-08-31T06:00:14;99960.66;;;24.11;52.47
44198;BME280;30157;55.512;37.764;2023-08-31T06:02:42;99887.56;;;23.92;52.19
44198;BME280;30157;55.512;37.764;2023-08-31T06:05:10;99932.69;;;24.50;50.99
44198;BME280;30157;55.512;37.764;2023-08-31T06:07:38;99948.03;;;24.59;50.98
44198;BME280;30157;55.512;37.764;2023-08-31T06:10:04;99910.34;;;24.40;50.71
44198;BME280;30157;55.512;37.764;2023-08-31T06:12:31;99975.28;;;24.92;50.63
44198;BME280;30157;55.512;37.764;2023-08-31T06:14:56;99990.06;;;25.10;50.67
44198;BME280;30157;55.512;37.764;2023-08-31T06:17:22;99985.16;;;25.60;49.95
44198;BME280;30157;55.512;37.764;2023-08-31T06:19:47;99967.38;;;26.03;49.21
44198;BME280;30157;55.512;37.764;2023-08-31T06:22:13;99988.59;;;26.56;47.95
44198;BME280;30157;55.512;37.764;2023-08-31T06:24:39;99970.38;;;26.62;46.40
44198;BME280;30157;55.512;37.764;2023-08-31T06:27:05;99998.53;;;26.79;46.00
44198;BME280;30157;55.512;37.764;2023-08-31T06:29:30;99981.16;;;26.61;46.02
44198;BME280;30157;55.512;37.764;2023-08-31T06:31:56;99969.09;;;26.42;45.63
44198;BME280;30157;55.512;37.764;2023-08-31T06:34:22;99999.66;;;26.37;46.14
44198;BME280;30157;55.512;37.764;2023-08-31T06:36:48;99900.59;;;25.93;46.77
44198;BME280;30157;55.512;37.764;2023-08-31T06:39:13;99942.41;;;26.57;46.19
44198;BME280;30157;55.512;37.764;2023-08-31T06:41:41;99876.75;;;26.31;45.63
44198;BME280;30157;55.512;37.764;2023-08-31T06:44:06;99986.72;;;26.83;45.31
44198;BME280;30157;55.512;37.764;2023-08-31T06:46:32;100000.16;;;27.19;45.80
44198;BME280;30157;55.512;37.764;2023-08-31T06:49:06;100009.56;;;27.62;44.04
44198;BME280;30157;55.512;37.764;2023-08-31T06:51:32;100004.97;;;27.14;43.78
44198;BME280;30157;55.512;37.764;2023-08-31T06:53:58;99926.44;;;26.82;44.24
44198;BME280;30157;55.512;37.764;2023-08-31T06:56:32;99997.59;;;27.43;43.75
44198;BME280;30157;55.512;37.764;2023-08-31T06:58:58;99963.41;;;27.11;44.46
44198;BME280;30157;55.512;37.764;2023-08-31T07:01:24;99918.50;;;26.94;44.23
44198;BME280;30157;55.512;37.764;2023-08-31T07:03:50;100001.19;;;27.42;44.28
44198;BME280;30157;55.512;37.764;2023-08-31T07:06:15;99948.47;;;27.35;44.00
44198;BME280;30157;55.512;37.764;2023-08-31T07:08:41;99981.56;;;27.80;43.40
44198;BME280;30157;55.512;37.764;2023-08-31T07:11:07;99964.88;;;28.14;42.89
44198;BME280;30157;55.512;37.764;2023-08-31T07:13:33;99954.41;;;28.11;42.50
44198;BME280;30157;55.512;37.764;2023-08-31T07:15:58;99950.13;;;27.73;42.90
44198;BME280;30157;55.512;37.764;2023-08-31T07:18:24;99979.03;;;28.03;42.82
44198;BME280;30157;55.512;37.764;2023-08-31T07:20:49;99979.63;;;28.07;42.94
44198;BME280;30157;55.512;37.764;2023-08-31T07:23:15;99981.03;;;27.99;43.06
44198;BME280;30157;55.512;37.764;2023-08-31T07:25:40;99965.78;;;28.02;42.66
44198;BME280;30157;55.512;37.764;2023-08-31T07:28:07;99990.59;;;28.26;41.75
44198;BME280;30157;55.512;37.764;2023-08-31T07:30:33;99977.59;;;28.22;42.12
44198;BME280;30157;55.512;37.764;2023-08-31T07:32:58;99985.88;;;28.30;41.89
44198;BME280;30157;55.512;37.764;2023-08-31T07:35:28;99922.09;;;27.91;41.84
44198;BME280;30157;55.512;37.764;2023-08-31T07:37:53;99979.56;;;28.31;41.76
44198;BME280;30157;55.512;37.764;2023-08-31T07:40:19;99993.84;;;28.19;42.28
44198;BME280;30157;55.512;37.764;2023-08-31T07:42:44;100014.94;;;27.97;42.04
44198;BME280;30157;55.512;37.764;2023-08-31T07:45:10;100006.34;;;28.18;41.53
44198;BME280;30157;55.512;37.764;2023-08-31T07:47:36;99933.19;;;28.09;40.99
44198;BME280;30157;55.512;37.764;2023-08-31T07:50:02;99955.81;;;28.62;40.52
44198;BME280;30157;55.512;37.764;2023-08-31T07:52:29;99982.59;;;28.73;40.26
44198;BME280;30157;55.512;37.764;2023-08-31T07:54:54;99994.06;;;28.62;40.59
44198;BME280;30157;55.512;37.764;2023-08-31T07:57:20;100003.69;;;28.65;40.65
44198;BME280;30157;55.512;37.764;2023-08-31T07:59:46;99993.28;;;29.30;39.99
44198;BME280;30157;55.512;37.764;2023-08-31T08:02:11;99983.75;;;29.48;38.24
44198;BME280;30157;55.512;37.764;2023-08-31T08:04:37;99946.88;;;29.31;38.89
44198;BME280;30157;55.512;37.764;2023-08-31T08:07:03;99981.31;;;29.45;38.78
44198;BME280;30157;55.512;37.764;2023-08-31T08:09:29;99982.81;;;29.38;38.84
44198;BME280;30157;55.512;37.764;2023-08-31T08:11:55;99963.00;;;29.18;39.02
44198;BME280;30157;55.512;37.764;2023-08-31T08:14:21;99854.88;;;28.44;38.97
44198;BME280;30157;55.512;37.764;2023-08-31T08:16:47;99959.25;;;29.09;38.86
44198;BME280;30157;55.512;37.764;2023-08-31T08:19:12;99970.78;;;29.32;39.17
44198;BME280;30157;55.512;37.764;2023-08-31T08:21:38;99982.75;;;29.49;38.85
44198;BME280;30157;55.512;37.764;2023-08-31T08:24:04;99976.13;;;29.76;37.48
44198;BME280;30157;55.512;37.764;2023-08-31T08:26:29;99949.56;;;29.08;38.09
44198;BME280;30157;55.512;37.764;2023-08-31T08:28:55;99975.84;;;29.47;38.05
44198;BME280;30157;55.512;37.764;2023-08-31T08:31:20;99965.00;;;30.04;37.75
44198;BME280;30157;55.512;37.764;2023-08-31T08:33:46;99958.31;;;30.40;36.05
44198;BME280;30157;55.512;37.764;2023-08-31T08:36:12;99895.16;;;30.07;36.01
44198;BME280;30157;55.512;37.764;2023-08-31T08:38:38;99967.78;;;30.44;35.42
44198;BME280;30157;55.512;37.764;2023-08-31T08:41:06;99980.75;;;30.70;35.19
44198;BME280;30157;55.512;37.764;2023-08-31T08:43:33;99977.00;;;30.52;34.70
44198;BME280;30157;55.512;37.764;2023-08-31T08:46:05;99942.47;;;30.48;34.82
44198;BME280;30157;55.512;37.764;2023-08-31T08:48:33;99972.94;;;30.57;34.39
44198;BME280;30157;55.512;37.764;2023-08-31T08:51:03;99957.28;;;30.53;35.11
44198;BME280;30157;55.512;37.764;2023-08-31T08:53:29;99931.78;;;30.37;34.10
44198;BME280;30157;55.512;37.764;2023-08-31T08:55:55;99947.66;;;30.71;34.22
44198;BME280;30157;55.512;37.764;2023-08-31T08:58:29;99950.78;;;30.45;34.00
44198;BME280;30157;55.512;37.764;2023-08-31T09:00:55;99949.78;;;30.25;34.35
44198;BME280;30157;55.512;37.764;2023-08-31T09:03:23;99959.66;;;30.77;33.93
44198;BME280;30157;55.512;37.764;2023-08-31T09:05:50;99958.56;;;31.30;33.70
44198;BME280;30157;55.512;37.764;2023-08-31T09:08:25;99882.72;;;30.89;33.90
44198;BME280;30157;55.512;37.764;2023-08-31T09:10:51;99892.97;;;30.74;33.53
44198;BME280;30157;55.512;37.764;2023-08-31T09:13:18;99972.13;;;31.38;33.19
44198;BME280;30157;55.512;37.764;2023-08-31T09:15:48;99956.59;;;31.32;33.25
44198;BME280;30157;55.512;37.764;2023-08-31T09:18:16;99943.25;;;31.01;33.29
44198;BME280;30157;55.512;37.764;2023-08-31T09:20:46;99891.75;;;30.05;34.27
44198;BME280;30157;55.512;37.764;2023-08-31T09:23:16;99975.69;;;30.67;34.68
44198;BME280;30157;55.512;37.764;2023-08-31T09:25:53;99905.13;;;30.47;34.38
44198;BME280;30157;55.512;37.764;2023-08-31T09:28:21;99887.69;;;30.31;34.01
44198;BME280;30157;55.512;37.764;2023-08-31T09:30:49;99961.97;;;31.32;33.59
44198;BME280;30157;55.512;37.764;2023-08-31T09:33:17;99966.22;;;30.94;33.85
44198;BME280;30157;55.512;37.764;2023-08-31T09:35:51;99964.25;;;31.46;33.74
44198;BME280;30157;55.512;37.764;2023-08-31T09:38:18;99929.97;;;31.99;32.87
44198;BME280;30157;55.512;37.764;2023-08-31T09:40:44;99967.31;;;32.49;32.28
44198;BME280;30157;55.512;37.764;2023-08-31T09:43:10;99965.63;;;32.58;32.45
44198;BME280;30157;55.512;37.764;2023-08-31T09:45:36;99929.38;;;32.05;32.75
44198;BME280;30157;55.512;37.764;2023-08-31T09:48:04;99968.38;;;31.70;33.72
44198;BME280;30157;55.512;37.764;2023-08-31T09:50:32;99901.28;;;31.31;33.82
44198;BME280;30157;55.512;37.764;2023-08-31T09:53:02;99928.28;;;31.69;33.83
44198;BME280;30157;55.512;37.764;2023-08-31T09:55:31;99933.94;;;31.95;33.69
44198;BME280;30157;55.512;37.764;2023-08-31T09:58:00;99957.63;;;32.29;33.13
44198;BME280;30157;55.512;37.764;2023-08-31T10:00:27;99940.81;;;31.29;34.25
44198;BME280;30157;55.512;37.764;2023-08-31T10:02:56;99964.28;;;31.66;33.50
44198;BME280;30157;55.512;37.764;2023-08-31T10:05:24;99924.19;;;30.94;34.71
44198;BME280;30157;55.512;37.764;2023-08-31T10:07:50;99969.78;;;31.55;34.04
44198;BME280;30157;55.512;37.764;2023-08-31T10:10:16;99978.28;;;31.70;34.53
44198;BME280;30157;55.512;37.764;2023-08-31T10:12:45;99924.56;;;30.80;35.51
44198;BME280;30157;55.512;37.764;2023-08-31T10:15:11;99901.00;;;31.14;33.81
44198;BME280;30157;55.512;37.764;2023-08-31T10:17:39;99901.00;;;31.34;33.53
44198;BME280;30157;55.512;37.764;2023-08-31T10:20:07;99922.16;;;31.17;34.34
44198;BME280;30157;55.512;37.764;2023-08-31T10:22:33;99946.31;;;31.37;34.41
44198;BME280;30157;55.512;37.764;2023-08-31T10:25:02;99901.97;;;31.23;33.90
44198;BME280;30157;55.512;37.764;2023-08-31T10:27:42;99963.41;;;31.46;35.06
44198;BME280;30157;55.512;37.764;2023-08-31T10:33:23;99954.66;;;31.44;33.77
44198;BME280;30157;55.512;37.764;2023-08-31T10:35:50;99912.53;;;31.05;34.06
44198;BME280;30157;55.512;37.764;2023-08-31T10:38:30;99957.28;;;31.24;34.97
44198;BME280;30157;55.512;37.764;2023-08-31T10:46:43;99960.63;;;31.77;34.16
44198;BME280;30157;55.512;37.764;2023-08-31T10:51:36;99920.78;;;32.11;33.01
44198;BME280;30157;55.512;37.764;2023-08-31T10:54:20;99948.31;;;32.04;32.90
44198;BME280;30157;55.512;37.764;2023-08-31T11:00:01;99956.94;;;32.17;32.57
44198;BME280;30157;55.512;37.764;2023-08-31T11:05:18;99951.88;;;32.61;32.84
44198;BME280;30157;55.512;37.764;2023-08-31T11:07:46;99917.25;;;32.01;32.71
44198;BME280;30157;55.512;37.764;2023-08-31T11:12:47;99899.09;;;32.80;31.92
44198;BME280;30157;55.512;37.764;2023-08-31T11:15:15;99933.78;;;33.29;31.44
44198;BME280;30157;55.512;37.764;2023-08-31T11:17:42;99944.16;;;32.86;32.00
44198;BME280;30157;55.512;37.764;2023-08-31T11:20:13;99822.81;;;31.88;31.93
44198;BME280;30157;55.512;37.764;2023-08-31T11:22:42;99888.59;;;31.92;32.19
44198;BME280;30157;55.512;37.764;2023-08-31T11:25:11;99863.78;;;31.60;32.22
44198;BME280;30157;55.512;37.764;2023-08-31T11:27:36;99924.28;;;32.12;32.40
44198;BME280;30157;55.512;37.764;2023-08-31T11:30:10;99940.56;;;32.77;31.95
44198;BME280;30157;55.512;37.764;2023-08-31T11:32:36;99934.72;;;33.10;31.20
44198;BME280;30157;55.512;37.764;2023-08-31T11:35:02;99930.97;;;33.48;30.76
44198;BME280;30157;55.512;37.764;2023-08-31T11:37:29;99915.56;;;33.59;30.59
44198;BME280;30157;55.512;37.764;2023-08-31T11:39:55;99926.94;;;33.35;31.44
44198;BME280;30157;55.512;37.764;2023-08-31T11:42:21;99921.56;;;33.53;30.72
44198;BME280;30157;55.512;37.764;2023-08-31T11:44:49;99904.81;;;33.59;30.30
44198;BME280;30157;55.512;37.764;2023-08-31T11:47:16;99910.88;;;33.79;30.30
44198;BME280;30157;55.512;37.764;2023-08-31T11:49:45;99905.38;;;34.07;30.09
44198;BME280;30157;55.512;37.764;2023-08-31T11:52:12;99854.81;;;33.30;30.12
44198;BME280;30157;55.512;37.764;2023-08-31T11:54:39;99865.72;;;32.82;31.70
44198;BME280;30157;55.512;37.764;2023-08-31T11:57:09;99849.47;;;33.20;30.63
44198;BME280;30157;55.512;37.764;2023-08-31T11:59:36;99799.72;;;33.34;29.85
44198;BME280;30157;55.512;37.764;2023-08-31T12:02:05;99892.50;;;33.74;30.30
44198;BME280;30157;55.512;37.764;2023-08-31T12:04:32;99875.44;;;33.65;30.04
44198;BME280;30157;55.512;37.764;2023-08-31T12:07:02;99900.88;;;34.15;29.46
44198;BME280;30157;55.512;37.764;2023-08-31T12:09:32;99896.03;;;33.75;30.08
44198;BME280;30157;55.512;37.764;2023-08-31T12:11:58;99852.34;;;32.63;31.25
44198;BME280;30157;55.512;37.764;2023-08-31T12:14:26;99892.59;;;32.82;30.81
44198;BME280;30157;55.512;37.764;2023-08-31T12:17:00;99856.28;;;32.96;30.45
44198;BME280;30157;55.512;37.764;2023-08-31T12:19:29;99861.50;;;33.26;30.15
44198;BME280;30157;55.512;37.764;2023-08-31T12:21:56;99813.59;;;32.93;30.40
44198;BME280;30157;55.512;37.764;2023-08-31T12:24:22;99817.34;;;32.82;31.22
44198;BME280;30157;55.512;37.764;2023-08-31T12:26:49;99890.75;;;33.01;31.29
44198;BME280;30157;55.512;37.764;2023-08-31T12:29:16;99830.88;;;32.63;31.31
44198;BME280;30157;55.512;37.764;2023-08-31T12:31:42;99878.47;;;33.44;30.45
44198;BME280;30157;55.512;37.764;2023-08-31T12:34:09;99847.09;;;32.99;30.71
44198;BME280;30157;55.512;37.764;2023-08-31T12:36:36;99879.88;;;33.03;31.21
44198;BME280;30157;55.512;37.764;2023-08-31T12:39:04;99869.81;;;33.05;31.18
44198;BME280;30157;55.512;37.764;2023-08-31T12:41:33;99814.88;;;32.71;30.82
44198;BME280;30157;55.512;37.764;2023-08-31T12:43:59;99862.00;;;32.56;31.84
44198;BME280;30157;55.512;37.764;2023-08-31T12:46:24;99825.78;;;32.88;31.51
44198;BME280;30157;55.512;37.764;2023-08-31T12:48:50;99852.38;;;33.09;31.24
44198;BME280;30157;55.512;37.764;2023-08-31T12:51:18;99885.44;;;32.91;31.60
44198;BME280;30157;55.512;37.764;2023-08-31T12:53:44;99873.53;;;32.76;31.47
44198;BME280;30157;55.512;37.764;2023-08-31T12:56:10;99848.16;;;32.13;31.93
44198;BME280;30157;55.512;37.764;2023-08-31T12:58:36;99796.50;;;32.01;31.79
44198;BME280;30157;55.512;37.764;2023-08-31T13:01:01;99836.41;;;32.24;31.89
44198;BME280;30157;55.512;37.764;2023-08-31T13:03:27;99827.03;;;31.90;32.38
44198;BME280;30157;55.512;37.764;2023-08-31T13:05:54;99863.25;;;31.66;33.14
44198;BME280;30157;55.512;37.764;2023-08-31T13:08:20;99782.06;;;30.86;33.45
44198;BME280;30157;55.512;37.764;2023-08-31T13:10:52;99842.63;;;30.67;34.91
44198;BME280;30157;55.512;37.764;2023-08-31T13:13:19;99864.94;;;30.16;35.69